createdAt,value
2024-03-10T00:00:18.204Z,9.37
2024-03-10T00:02:45.964Z,9.39
2024-03-10T00:05:14.742Z,9.44
2024-03-10T00:07:43.123Z,9.36
2024-03-10T00:10:11.828Z,9.42
2024-03-10T00:12:39.203Z,9.40
2024-03-10T00:15:07.803Z,9.40
2024-03-10T00:17:36.941Z,9.41
2024-03-10T00:20:05.172Z,9.47
2024-03-10T00:22:32.617Z,9.47
2024-03-10T00:24:59.930Z,9.47
2024-03-10T00:27:28.334Z,9.54
2024-03-10T00:29:55.621Z,9.58
2024-03-10T00:32:23.000Z,9.62
2024-03-10T00:34:50.297Z,9.60
2024-03-10T00:37:17.754Z,9.61
2024-03-10T00:39:44.978Z,9.66
2024-03-10T00:42:12.211Z,9.65
2024-03-10T00:44:39.962Z,9.66
2024-03-10T00:47:09.828Z,9.68
2024-03-10T00:49:37.910Z,11.78
2024-03-10T00:52:08.539Z,12.91
2024-03-10T00:54:35.932Z,11.98
2024-03-10T00:57:04.046Z,11.07
2024-03-10T00:59:31.673Z,10.66
2024-03-10T01:02:00.417Z,10.41
2024-03-10T01:04:29.017Z,10.25
2024-03-10T01:06:58.152Z,10.12
2024-03-10T01:09:25.719Z,10.01
2024-03-10T01:11:54.367Z,10.02
2024-03-10T01:14:22.151Z,9.96
2024-03-10T01:16:49.634Z,9.96
2024-03-10T01:19:17.013Z,9.91
2024-03-10T01:21:47.379Z,9.85
2024-03-10T01:24:15.128Z,9.86
2024-03-10T01:26:42.342Z,9.87
2024-03-10T01:29:10.050Z,9.76
2024-03-10T01:31:37.560Z,9.80
2024-03-10T01:34:05.395Z,9.80
2024-03-10T01:36:32.886Z,9.74
2024-03-10T01:39:00.120Z,9.70
2024-03-10T01:41:27.723Z,9.67
2024-03-10T01:43:55.261Z,9.73
2024-03-10T01:46:26.085Z,9.75
2024-03-10T01:48:54.653Z,9.68
2024-03-10T01:51:22.126Z,9.71
2024-03-10T01:53:51.944Z,9.63
2024-03-10T01:56:19.724Z,9.62
2024-03-10T01:58:47.843Z,9.59
2024-03-10T02:01:17.053Z,9.65
2024-03-10T02:03:49.818Z,9.68
2024-03-10T02:06:17.817Z,9.63
2024-03-10T02:08:46.718Z,9.64
2024-03-10T02:11:14.960Z,9.61
2024-03-10T02:13:42.280Z,9.59
2024-03-10T02:16:10.120Z,9.55
2024-03-10T02:18:38.060Z,9.49
2024-03-10T02:21:08.031Z,9.47
2024-03-10T02:24:07.902Z,9.45
2024-03-10T02:26:38.391Z,9.47
2024-03-10T02:29:17.903Z,9.44
2024-03-10T02:32:08.927Z,9.42
2024-03-10T02:34:56.402Z,9.36
2024-03-10T02:37:42.808Z,9.41
2024-03-10T02:40:29.908Z,9.45
2024-03-10T02:43:15.631Z,9.40
2024-03-10T02:46:01.806Z,9.47
2024-03-10T02:48:30.187Z,9.49
2024-03-10T02:50:57.492Z,9.47
2024-03-10T02:53:24.898Z,9.43
2024-03-10T02:55:52.190Z,9.47
2024-03-10T02:58:19.545Z,9.39
2024-03-10T03:00:49.083Z,9.41
2024-03-10T03:03:16.417Z,9.33
2024-03-10T03:05:43.694Z,9.30
2024-03-10T03:08:11.028Z,9.35
2024-03-10T03:10:38.268Z,9.45
2024-03-10T03:13:05.937Z,9.43
2024-03-10T03:15:33.210Z,9.43
2024-03-10T03:18:00.716Z,9.35
2024-03-10T03:20:28.584Z,9.39
2024-03-10T03:22:56.412Z,9.28
2024-03-10T03:25:25.846Z,9.32
2024-03-10T03:27:53.196Z,9.29
2024-03-10T03:30:20.728Z,9.33
2024-03-10T03:32:48.579Z,9.35
2024-03-10T03:35:19.408Z,9.32
2024-03-10T03:37:47.106Z,9.29
2024-03-10T03:40:15.512Z,9.28
2024-03-10T03:42:43.303Z,9.26
2024-03-10T03:45:11.007Z,9.16
2024-03-10T03:47:38.632Z,8.93
2024-03-10T03:50:07.028Z,8.87
2024-03-10T03:52:34.592Z,8.88
2024-03-10T03:55:02.460Z,8.85
2024-03-10T03:57:29.945Z,8.81
2024-03-10T03:59:57.390Z,8.80
2024-03-10T04:02:27.497Z,8.82
2024-03-10T04:04:56.084Z,8.92
2024-03-10T04:07:23.772Z,9.00
2024-03-10T04:09:51.105Z,9.00
2024-03-10T04:12:18.608Z,9.02
2024-03-10T04:14:45.926Z,9.03
2024-03-10T04:17:13.241Z,8.99
2024-03-10T04:19:40.586Z,8.98
2024-03-10T04:22:11.760Z,8.94
2024-03-10T04:24:42.680Z,8.93
2024-03-10T04:27:10.305Z,8.92
2024-03-10T04:29:37.932Z,8.83
2024-03-10T04:32:08.852Z,8.54
2024-03-10T04:34:39.857Z,8.33
2024-03-10T04:37:09.372Z,8.29
2024-03-10T04:39:37.144Z,8.37
2024-03-10T04:42:04.441Z,8.40
2024-03-10T04:44:32.041Z,8.44
2024-03-10T04:46:59.493Z,8.48
2024-03-10T04:49:27.511Z,8.51
2024-03-10T04:51:54.808Z,8.49
2024-03-10T04:54:22.212Z,8.46
2024-03-10T04:56:51.789Z,8.53
2024-03-10T04:59:19.361Z,8.54
2024-03-10T05:01:47.673Z,8.53
2024-03-10T05:04:15.312Z,8.55
2024-03-10T05:06:42.668Z,8.51
2024-03-10T05:09:09.858Z,8.44
2024-03-10T05:11:37.245Z,8.46
2024-03-10T05:14:05.681Z,8.40
2024-03-10T05:16:33.016Z,8.19
2024-03-10T05:19:00.290Z,8.21
2024-03-10T05:21:27.679Z,8.28
2024-03-10T05:23:55.062Z,8.23
2024-03-10T05:26:22.511Z,8.22
2024-03-10T05:28:50.093Z,8.22
2024-03-10T05:31:31.715Z,8.26
2024-03-10T05:34:00.804Z,8.32
2024-03-10T05:36:28.965Z,8.12
2024-03-10T05:38:57.033Z,8.21
2024-03-10T05:41:24.446Z,8.15
2024-03-10T05:43:51.826Z,8.03
2024-03-10T05:46:19.715Z,8.10
2024-03-10T05:48:48.584Z,7.97
2024-03-10T05:51:16.027Z,7.95
2024-03-10T05:53:43.632Z,7.98
2024-03-10T05:56:13.821Z,8.07
2024-03-10T05:58:41.200Z,8.10
2024-03-10T06:01:08.952Z,8.17
2024-03-10T06:03:36.665Z,8.17
2024-03-10T06:06:04.494Z,8.21
2024-03-10T06:08:32.017Z,8.25
2024-03-10T06:11:00.324Z,8.24
2024-03-10T06:13:27.937Z,8.24
2024-03-10T06:15:55.212Z,8.27
2024-03-10T06:18:25.097Z,8.21
2024-03-10T06:21:11.231Z,8.09
2024-03-10T06:23:57.370Z,7.94
2024-03-10T06:26:24.674Z,7.72
2024-03-10T06:28:52.594Z,7.50
2024-03-10T06:31:21.102Z,7.64
2024-03-10T06:33:52.048Z,7.87
2024-03-10T06:36:19.462Z,8.06
2024-03-10T06:38:46.762Z,8.11
2024-03-10T06:41:14.135Z,8.18
2024-03-10T06:43:41.412Z,8.21
2024-03-10T06:46:11.784Z,8.19
2024-03-10T06:48:39.197Z,8.26
2024-03-10T06:51:09.210Z,8.25
2024-03-10T06:53:36.528Z,8.37
2024-03-10T06:56:04.521Z,8.48
2024-03-10T06:58:31.975Z,8.60
2024-03-10T07:00:59.598Z,8.69
2024-03-10T07:03:27.104Z,8.72
2024-03-10T07:06:01.373Z,8.81
2024-03-10T07:08:28.878Z,8.84
2024-03-10T07:10:56.221Z,8.89
2024-03-10T07:13:24.083Z,8.99
2024-03-10T07:15:51.403Z,9.09
2024-03-10T07:18:18.753Z,9.15
2024-03-10T07:20:47.035Z,9.15
2024-03-10T07:23:14.666Z,9.19
2024-03-10T07:25:42.109Z,9.18
2024-03-10T07:28:09.435Z,9.30
2024-03-10T07:30:36.782Z,9.41
2024-03-10T07:33:04.346Z,9.52
2024-03-10T07:35:31.776Z,9.59
2024-03-10T07:37:59.236Z,9.68
2024-03-10T07:40:26.449Z,9.77
2024-03-10T07:42:53.777Z,9.87
2024-03-10T07:45:21.165Z,9.95
2024-03-10T07:47:49.678Z,10.06
2024-03-10T07:50:18.818Z,10.24
2024-03-10T07:52:47.626Z,10.35
2024-03-10T07:55:15.094Z,10.66
2024-03-10T07:57:42.482Z,10.74
2024-03-10T08:00:15.516Z,11.03
2024-03-10T08:02:44.686Z,11.11
2024-03-10T08:05:12.443Z,11.32
2024-03-10T08:07:41.414Z,11.52
2024-03-10T08:10:10.339Z,11.61
2024-03-10T08:12:37.645Z,11.71
2024-03-10T08:15:07.696Z,11.83
2024-03-10T08:17:35.112Z,11.68
2024-03-10T08:20:07.579Z,11.82
2024-03-10T08:22:38.353Z,11.91
2024-03-10T08:25:06.410Z,12.17
2024-03-10T08:27:35.033Z,12.33
2024-03-10T08:30:06.125Z,12.17
2024-03-10T08:32:34.568Z,12.29
2024-03-10T08:35:02.749Z,12.44
2024-03-10T08:37:29.983Z,12.45
2024-03-10T08:39:57.190Z,12.45
2024-03-10T08:42:28.968Z,12.44
2024-03-10T08:44:56.315Z,12.38
2024-03-10T08:47:23.620Z,12.31
2024-03-10T08:49:50.918Z,12.41
2024-03-10T08:52:19.592Z,12.46
2024-03-10T08:54:48.098Z,12.52
2024-03-10T08:57:15.387Z,12.50
2024-03-10T08:59:43.290Z,12.59
2024-03-10T09:02:10.768Z,13.09
2024-03-10T09:04:38.037Z,13.42
2024-03-10T09:07:06.877Z,13.75
2024-03-10T09:09:34.242Z,14.07
2024-03-10T09:12:01.703Z,14.16
2024-03-10T09:14:30.299Z,14.08
2024-03-10T09:16:57.740Z,14.12
2024-03-10T09:19:25.079Z,14.32
2024-03-10T09:21:52.510Z,14.29
2024-03-10T09:24:19.810Z,14.24
2024-03-10T09:26:47.050Z,14.15
2024-03-10T09:29:15.959Z,14.13
2024-03-10T09:31:44.691Z,14.14
2024-03-10T09:34:13.116Z,14.18
2024-03-10T09:36:41.161Z,14.11
2024-03-10T09:39:13.804Z,14.19
2024-03-10T09:41:43.199Z,14.17
2024-03-10T09:44:19.077Z,14.15
2024-03-10T09:46:51.995Z,14.15
2024-03-10T09:49:23.086Z,14.14
2024-03-10T09:51:50.674Z,14.23
2024-03-10T09:54:19.194Z,14.21
2024-03-10T09:56:51.523Z,14.19
2024-03-10T09:59:28.010Z,14.23
2024-03-10T10:01:56.012Z,14.22
2024-03-10T10:04:27.020Z,14.27
2024-03-10T10:06:57.911Z,14.26
2024-03-10T10:09:27.504Z,14.31
2024-03-10T10:11:57.542Z,14.31
2024-03-10T10:14:25.244Z,14.22
2024-03-10T10:16:58.016Z,14.25
2024-03-10T10:19:26.892Z,14.27
2024-03-10T10:21:54.703Z,14.31
2024-03-10T10:24:22.527Z,14.33
2024-03-10T10:26:59.711Z,14.30
2024-03-10T10:29:27.292Z,14.41
2024-03-10T10:32:00.130Z,14.41
2024-03-10T10:34:28.301Z,14.39
2024-03-10T10:36:57.291Z,14.44
2024-03-10T10:39:30.828Z,14.50
2024-03-10T10:42:02.093Z,14.55
2024-03-10T10:44:30.525Z,14.54
2024-03-10T10:47:00.894Z,14.55
2024-03-10T10:49:30.942Z,14.67
2024-03-10T10:51:58.405Z,14.71
2024-03-10T10:54:25.869Z,14.76
2024-03-10T10:56:57.320Z,14.82
2024-03-10T10:59:25.732Z,14.85
2024-03-10T11:01:59.933Z,14.95
2024-03-10T11:04:27.961Z,15.05
2024-03-10T11:06:56.901Z,15.15
2024-03-10T11:09:31.733Z,15.27
2024-03-10T11:12:17.587Z,15.30
2024-03-10T11:14:48.293Z,15.40
2024-03-10T11:17:18.316Z,15.49
2024-03-10T11:19:55.436Z,15.53
2024-03-10T11:22:28.981Z,15.59
2024-03-10T11:25:21.380Z,15.69
2024-03-10T11:27:49.948Z,15.78
2024-03-10T11:30:42.369Z,15.96
2024-03-10T11:33:12.559Z,16.09
2024-03-10T11:35:41.144Z,16.05
2024-03-10T11:38:11.409Z,16.03
2024-03-10T11:40:38.699Z,16.09
2024-03-10T11:43:08.230Z,16.17
2024-03-10T11:45:36.310Z,16.18
2024-03-10T11:48:04.269Z,16.27
2024-03-10T11:50:32.217Z,16.42
2024-03-10T11:52:59.577Z,16.67
2024-03-10T11:55:26.813Z,16.71
2024-03-10T11:57:54.690Z,16.79
2024-03-10T12:00:24.595Z,16.84
2024-03-10T12:02:54.622Z,16.84
2024-03-10T12:05:23.864Z,16.74
2024-03-10T12:07:59.163Z,16.70
2024-03-10T12:10:26.724Z,16.67
2024-03-10T12:12:54.000Z,16.62
2024-03-10T12:15:23.263Z,16.62
2024-03-10T12:17:50.633Z,16.61
2024-03-10T12:20:20.037Z,16.67
2024-03-10T12:22:50.451Z,16.61
2024-03-10T12:25:19.641Z,16.65
2024-03-10T12:27:50.913Z,16.70
2024-03-10T12:30:19.314Z,16.67
2024-03-10T12:32:53.827Z,16.67
2024-03-10T12:35:22.826Z,16.72
2024-03-10T12:37:50.685Z,16.71
2024-03-10T12:40:18.117Z,16.75
2024-03-10T12:42:48.539Z,16.84
2024-03-10T12:45:18.812Z,17.01
2024-03-10T12:47:47.468Z,17.02
2024-03-10T12:50:15.600Z,17.10
2024-03-10T12:52:43.688Z,17.07
2024-03-10T12:55:11.151Z,16.99
2024-03-10T12:57:40.206Z,16.98
2024-03-10T13:00:26.659Z,16.99
2024-03-10T13:02:57.400Z,16.98
2024-03-10T13:05:27.209Z,17.12
2024-03-10T13:07:54.668Z,17.34
2024-03-10T13:10:22.697Z,17.55
2024-03-10T13:12:51.130Z,17.59
2024-03-10T13:15:18.868Z,17.56
2024-03-10T13:17:46.351Z,17.87
2024-03-10T13:20:17.524Z,17.66
2024-03-10T13:22:47.029Z,17.59
2024-03-10T13:25:15.493Z,17.68
2024-03-10T13:27:43.030Z,17.56
2024-03-10T13:30:12.881Z,17.51
2024-03-10T13:32:41.983Z,17.49
2024-03-10T13:35:10.046Z,17.61
2024-03-10T13:37:37.427Z,17.75
2024-03-10T13:40:12.063Z,17.76
2024-03-10T13:42:42.078Z,17.72
2024-03-10T13:45:16.828Z,17.75
2024-03-10T13:47:50.004Z,17.85
2024-03-10T13:50:20.511Z,17.91
2024-03-10T13:52:48.083Z,17.97
2024-03-10T13:55:15.430Z,17.78
2024-03-10T13:57:44.972Z,17.75
2024-03-10T14:00:14.545Z,17.72
2024-03-10T14:02:44.708Z,17.71
2024-03-10T14:05:14.058Z,17.68
2024-03-10T14:07:43.225Z,17.67
2024-03-10T14:10:13.938Z,17.69
2024-03-10T14:12:41.905Z,17.68
2024-03-10T14:15:11.075Z,17.64
2024-03-10T14:17:39.478Z,17.66
2024-03-10T14:20:15.199Z,17.59
2024-03-10T14:22:49.443Z,17.54
2024-03-10T14:25:18.642Z,17.54
2024-03-10T14:27:51.414Z,17.52
2024-03-10T14:30:22.288Z,17.51
2024-03-10T14:32:53.224Z,17.51
2024-03-10T14:35:26.300Z,17.49
2024-03-10T14:37:54.938Z,17.47
2024-03-10T14:40:23.547Z,17.46
2024-03-10T14:42:53.232Z,17.43
2024-03-10T14:45:21.311Z,17.41
2024-03-10T14:47:50.680Z,17.40
2024-03-10T14:50:21.335Z,17.36
2024-03-10T14:52:50.224Z,17.30
2024-03-10T14:55:18.317Z,17.21
2024-03-10T14:57:47.195Z,17.23
2024-03-10T15:00:36.179Z,17.15
2024-03-10T15:03:09.866Z,17.12
2024-03-10T15:05:40.789Z,17.11
2024-03-10T15:08:10.216Z,17.07
2024-03-10T15:10:38.087Z,17.01
2024-03-10T15:13:08.918Z,16.98
2024-03-10T15:15:36.903Z,16.96
2024-03-10T15:18:06.998Z,16.94
2024-03-10T15:20:43.845Z,16.92
2024-03-10T15:23:15.046Z,16.87
2024-03-10T15:25:44.811Z,16.83
2024-03-10T15:28:12.791Z,17.44
2024-03-10T15:30:42.548Z,17.00
2024-03-10T15:33:12.314Z,16.82
2024-03-10T15:35:40.347Z,16.70
2024-03-10T15:38:09.450Z,16.61
2024-03-10T15:40:37.096Z,16.59
2024-03-10T15:43:04.806Z,16.56
2024-03-10T15:45:40.283Z,16.52
2024-03-10T15:48:09.904Z,16.47
2024-03-10T15:50:37.876Z,16.40
2024-03-10T15:53:07.268Z,16.33
2024-03-10T15:55:34.925Z,16.29
2024-03-10T15:58:02.382Z,16.27
2024-03-10T16:00:32.389Z,16.23
2024-03-10T16:03:12.184Z,16.21
2024-03-10T16:05:53.753Z,16.18
2024-03-10T16:08:24.909Z,16.09
2024-03-10T16:10:52.435Z,16.02
2024-03-10T16:13:52.074Z,15.97
2024-03-10T16:16:22.041Z,15.94
2024-03-10T16:18:50.719Z,15.91
2024-03-10T16:21:45.336Z,15.87
2024-03-10T16:24:14.544Z,15.81
2024-03-10T16:26:44.915Z,15.79
2024-03-10T16:29:13.652Z,15.74
2024-03-10T16:31:41.799Z,15.68
2024-03-10T16:34:10.770Z,15.68
2024-03-10T16:36:39.302Z,15.65
2024-03-10T16:39:06.614Z,15.57
2024-03-10T16:41:35.964Z,15.57
2024-03-10T16:44:03.804Z,15.52
2024-03-10T16:46:31.197Z,15.47
2024-03-10T16:48:58.871Z,15.47
2024-03-10T16:51:26.307Z,15.38
2024-03-10T16:53:54.334Z,15.35
2024-03-10T16:56:24.342Z,15.32
2024-03-10T16:58:52.417Z,15.27
2024-03-10T17:01:21.246Z,15.23
2024-03-10T17:03:48.921Z,15.20
2024-03-10T17:06:17.681Z,15.17
2024-03-10T17:08:45.071Z,15.16
2024-03-10T17:11:12.862Z,14.93
2024-03-10T17:13:40.199Z,14.78
2024-03-10T17:16:07.867Z,14.58
2024-03-10T17:18:36.801Z,14.39
2024-03-10T17:21:04.564Z,14.07
2024-03-10T17:23:32.005Z,14.01
2024-03-10T17:25:59.693Z,14.09
2024-03-10T17:28:27.161Z,13.78
2024-03-10T17:30:54.373Z,13.68
2024-03-10T17:33:22.016Z,13.57
2024-03-10T17:35:49.354Z,13.45
2024-03-10T17:38:17.966Z,13.30
2024-03-10T17:40:45.656Z,13.22
2024-03-10T17:43:12.955Z,12.91
2024-03-10T17:45:41.442Z,12.91
2024-03-10T17:48:12.081Z,12.78
2024-03-10T17:50:42.012Z,12.76
2024-03-10T17:53:11.062Z,12.85
2024-03-10T17:55:39.975Z,12.53
2024-03-10T17:58:08.047Z,12.46
2024-03-10T18:00:38.038Z,12.58
2024-03-10T18:03:05.533Z,12.19
2024-03-10T18:05:34.075Z,12.40
2024-03-10T18:08:02.856Z,12.56
2024-03-10T18:10:30.236Z,12.33
2024-03-10T18:12:57.424Z,11.91
2024-03-10T18:15:25.785Z,11.78
2024-03-10T18:17:54.307Z,11.76
2024-03-10T18:20:23.990Z,11.66
2024-03-10T18:22:53.432Z,11.94
2024-03-10T18:25:22.450Z,12.01
2024-03-10T18:27:49.930Z,11.93
2024-03-10T18:30:19.058Z,11.84
2024-03-10T18:32:47.710Z,11.68
2024-03-10T18:35:17.328Z,11.55
2024-03-10T18:37:45.986Z,11.63
2024-03-10T18:40:13.490Z,11.75
2024-03-10T18:42:44.357Z,11.36
2024-03-10T18:45:14.002Z,11.00
2024-03-10T18:47:41.443Z,11.03
2024-03-10T18:50:12.673Z,11.10
2024-03-10T18:52:42.636Z,10.84
2024-03-10T18:55:16.203Z,10.85
2024-03-10T18:57:45.612Z,10.98
2024-03-10T19:00:13.964Z,10.89
2024-03-10T19:02:42.412Z,10.55
2024-03-10T19:05:10.764Z,10.32
2024-03-10T19:07:41.511Z,10.74
2024-03-10T19:10:11.048Z,10.57
2024-03-10T19:12:40.880Z,10.21
2024-03-10T19:15:09.081Z,10.47
2024-03-10T19:17:38.674Z,10.76
2024-03-10T19:20:12.138Z,10.42
2024-03-10T19:22:58.593Z,10.48
2024-03-10T19:25:29.369Z,10.41
2024-03-10T19:27:56.683Z,10.39
2024-03-10T19:30:25.775Z,10.60
2024-03-10T19:32:53.409Z,10.57
2024-03-10T19:35:23.658Z,10.25
2024-03-10T19:37:52.335Z,10.41
2024-03-10T19:40:20.634Z,10.50
2024-03-10T19:42:49.837Z,10.37
2024-03-10T19:45:20.559Z,10.48
2024-03-10T19:47:49.337Z,10.29
2024-03-10T19:50:21.280Z,10.50
2024-03-10T19:52:50.750Z,10.50
2024-03-10T19:55:18.588Z,10.60
2024-03-10T19:57:45.944Z,10.06
2024-03-10T20:00:16.999Z,9.78
2024-03-10T20:02:48.384Z,9.77
2024-03-10T20:05:16.094Z,9.53
2024-03-10T20:07:49.797Z,9.86
2024-03-10T20:10:21.088Z,9.84
2024-03-10T20:12:50.757Z,9.65
2024-03-10T20:15:19.471Z,9.57
2024-03-10T20:17:50.095Z,9.61
2024-03-10T20:20:26.203Z,9.66
2024-03-10T20:22:55.941Z,9.88
2024-03-10T20:25:24.793Z,9.92
2024-03-10T20:27:53.229Z,9.88
2024-03-10T20:30:21.217Z,9.69
2024-03-10T20:32:48.986Z,9.86
2024-03-10T20:35:16.926Z,9.47
2024-03-10T20:37:44.749Z,9.47
2024-03-10T20:40:14.304Z,9.58
2024-03-10T20:42:42.469Z,9.57
2024-03-10T20:45:10.728Z,9.67
2024-03-10T20:47:50.167Z,9.71
2024-03-10T20:50:24.119Z,9.75
2024-03-10T20:52:53.349Z,9.55
2024-03-10T20:55:21.220Z,9.47
2024-03-10T20:57:48.491Z,9.07
2024-03-10T21:00:20.444Z,8.92
2024-03-10T21:02:50.598Z,9.15
2024-03-10T21:05:18.826Z,8.92
2024-03-10T21:07:47.101Z,8.99
2024-03-10T21:10:16.369Z,9.09
2024-03-10T21:12:46.337Z,9.18
2024-03-10T21:15:16.927Z,9.13
2024-03-10T21:17:46.601Z,8.97
2024-03-10T21:20:16.660Z,9.12
2024-03-10T21:22:44.190Z,8.94
2024-03-10T21:25:11.440Z,9.17
2024-03-10T21:27:45.219Z,9.36
2024-03-10T21:30:15.608Z,9.22
2024-03-10T21:32:44.265Z,9.18
2024-03-10T21:35:12.549Z,9.23
2024-03-10T21:37:42.097Z,9.10
2024-03-10T21:40:11.282Z,8.84
2024-03-10T21:42:40.193Z,8.80
2024-03-10T21:45:09.555Z,8.65
2024-03-10T21:47:41.608Z,9.10
2024-03-10T21:50:11.506Z,9.05
2024-03-10T21:52:39.926Z,9.18
2024-03-10T21:55:07.770Z,8.68
2024-03-10T21:57:38.110Z,8.45
2024-03-10T22:00:18.617Z,8.67
2024-03-10T22:02:49.416Z,8.80
2024-03-10T22:05:17.999Z,8.65
2024-03-10T22:07:46.688Z,8.82
2024-03-10T22:10:15.037Z,8.91
2024-03-10T22:12:44.473Z,9.04
2024-03-10T22:15:16.020Z,8.87
2024-03-10T22:17:51.520Z,8.82
2024-03-10T22:20:27.242Z,8.80
2024-03-10T22:22:59.013Z,8.52
2024-03-10T22:25:27.877Z,8.30
2024-03-10T22:27:55.808Z,8.09
2024-03-10T22:30:32.000Z,8.30
2024-03-10T22:32:59.702Z,8.04
2024-03-10T22:35:27.722Z,8.45
2024-03-10T22:37:56.657Z,8.57
2024-03-10T22:40:24.438Z,8.65
2024-03-10T22:42:54.313Z,8.70
2024-03-10T22:45:29.273Z,8.61
2024-03-10T22:48:00.436Z,8.37
2024-03-10T22:50:28.120Z,8.31
2024-03-10T22:52:56.878Z,8.54
2024-03-10T22:55:26.037Z,8.44
2024-03-10T22:57:54.299Z,8.52
2024-03-10T23:00:25.109Z,8.52
2024-03-10T23:02:53.925Z,8.45
2024-03-10T23:05:26.403Z,8.61
2024-03-10T23:08:05.972Z,8.55
2024-03-10T23:10:39.149Z,8.61
2024-03-10T23:13:07.227Z,8.51
2024-03-10T23:15:35.488Z,8.51
2024-03-10T23:18:03.199Z,8.33
2024-03-10T23:20:30.762Z,8.34
2024-03-10T23:22:58.520Z,8.45
2024-03-10T23:25:27.212Z,8.41
2024-03-10T23:27:55.164Z,8.43
2024-03-10T23:30:27.166Z,8.25
2024-03-10T23:32:56.516Z,8.44
2024-03-10T23:35:24.976Z,8.21
2024-03-10T23:37:52.523Z,8.00
2024-03-10T23:40:24.468Z,8.16
2024-03-10T23:42:53.429Z,8.32
2024-03-10T23:45:21.812Z,8.23
2024-03-10T23:47:51.524Z,8.26
2024-03-10T23:50:21.422Z,8.33
2024-03-10T23:52:52.350Z,8.17
2024-03-10T23:55:21.650Z,8.34
2024-03-10T23:57:49.111Z,8.09
